Time;durP1;ratioP1;P1;durP2;ratioP2;P2;SDS_P1;SDS_P2;PMS_P1;PMS_P2;Temp;Humidity;BMP_temperature;BMP_pressure;BME280_temperature;BME280_humidity;BME280_pressure;Samples;Min_cycle;Max_cycle;Signal;HPM_P1;HPM_P2
2023/06/05 00:00:53;;;;;;;5.50;2.45;;;;;;;12.42;100.00;99232.72;5160392;27;20088;-55
2023/06/05 00:03:19;;;;;;;4.20;2.38;;;;;;;12.35;100.00;99215.38;5160463;27;20110;-59
2023/06/05 00:05:45;;;;;;;7.65;3.03;;;;;;;12.32;100.00;99211.41;5160552;27;20047;-55
2023/06/05 00:08:12;;;;;;;7.65;2.63;;;;;;;12.24;100.00;99204.25;5160491;27;20138;-59
2023/06/05 00:10:38;;;;;;;4.50;2.28;;;;;;;12.23;100.00;99203.47;5159919;27;20408;-55
2023/06/05 00:13:04;;;;;;;11.30;3.38;;;;;;;12.21;100.00;99207.75;5160292;27;20053;-54
2023/06/05 00:15:31;;;;;;;5.32;2.53;;;;;;;12.22;100.00;99212.84;5160049;27;20051;-59
2023/06/05 00:17:57;;;;;;;11.23;2.30;;;;;;;12.16;100.00;99205.31;5160433;27;20061;-62
2023/06/05 00:20:23;;;;;;;5.85;2.28;;;;;;;12.18;100.00;99205.75;5159940;27;20054;-58
2023/06/05 00:22:49;;;;;;;6.43;2.90;;;;;;;12.09;100.00;99191.50;5160323;27;20085;-59
2023/06/05 00:25:15;;;;;;;11.15;3.17;;;;;;;12.05;100.00;99185.16;5160190;27;20128;-55
2023/06/05 00:27:41;;;;;;;6.25;2.78;;;;;;;11.89;100.00;99168.88;5160002;27;20133;-54
2023/06/05 00:30:08;;;;;;;10.27;2.67;;;;;;;11.86;100.00;99162.19;5159984;27;20450;-56
2023/06/05 00:32:34;;;;;;;8.10;2.90;;;;;;;11.87;100.00;99160.22;5159852;27;20054;-58
2023/06/05 00:35:01;;;;;;;8.85;3.60;;;;;;;11.86;100.00;99159.44;5160058;27;20047;-55
2023/06/05 00:37:27;;;;;;;12.50;3.30;;;;;;;11.84;100.00;99153.53;5159564;27;20049;-58
2023/06/05 00:39:53;;;;;;;10.52;2.92;;;;;;;11.72;100.00;99145.47;5159999;27;20042;-54
2023/06/05 00:42:19;;;;;;;10.93;3.33;;;;;;;11.66;100.00;99144.22;5159409;27;20416;-53
2023/06/05 00:44:46;;;;;;;8.38;2.60;;;;;;;11.61;100.00;99139.84;5159978;27;20150;-56
2023/06/05 00:47:12;;;;;;;6.72;2.75;;;;;;;11.62;100.00;99127.72;5159554;27;20129;-52
2023/06/05 00:49:38;;;;;;;5.38;2.60;;;;;;;11.60;100.00;99124.56;5160104;27;20053;-63
2023/06/05 00:52:06;;;;;;;7.45;2.75;;;;;;;11.50;100.00;99114.22;5159334;27;20051;-53
2023/06/05 00:54:32;;;;;;;5.90;2.72;;;;;;;11.49;100.00;99118.13;5159245;27;20049;-61
2023/06/05 00:56:58;;;;;;;5.25;2.70;;;;;;;11.44;100.00;99115.72;5159866;27;20047;-54
2023/06/05 00:59:25;;;;;;;5.93;2.58;;;;;;;11.44;100.00;99119.25;5159469;27;20088;-63
2023/06/05 01:01:53;;;;;;;5.50;2.42;;;;;;;11.43;100.00;99116.84;5159526;27;20046;-57
2023/06/05 01:04:19;;;;;;;5.43;2.30;;;;;;;11.43;100.00;99123.16;5159357;27;20064;-63
2023/06/05 01:06:45;;;;;;;5.88;2.50;;;;;;;11.44;100.00;99113.75;5159555;27;20137;-53
2023/06/05 01:09:13;;;;;;;6.22;2.40;;;;;;;11.45;100.00;99115.31;5159227;27;20107;-62
2023/06/05 01:11:45;;;;;;;6.47;2.83;;;;;;;11.31;100.00;99129.66;5159420;27;20054;-60
2023/06/05 01:14:20;;;;;;;9.52;2.60;;;;;;;11.37;100.00;99112.88;5158999;27;20129;-61
2023/06/05 01:16:48;;;;;;;6.40;2.50;;;;;;;11.30;100.00;99103.38;5159516;27;20051;-55
2023/06/05 01:19:14;;;;;;;7.78;2.47;;;;;;;11.19;100.00;99101.63;5158940;27;20071;-58
2023/06/05 01:21:41;;;;;;;5.47;2.67;;;;;;;11.15;100.00;99071.41;5159154;27;20110;-58
2023/06/05 01:24:07;;;;;;;6.70;2.67;;;;;;;11.15;100.00;99068.66;5159111;27;20133;-61
2023/06/05 01:26:38;;;;;;;5.88;3.03;;;;;;;11.15;100.00;99070.59;5159071;27;20046;-63
2023/06/05 01:29:10;;;;;;;18.67;4.82;;;;;;;11.02;100.00;99067.28;5158939;27;20050;-53
2023/06/05 01:31:38;;;;;;;11.60;2.63;;;;;;;10.92;100.00;99044.03;5158786;27;20046;-62
2023/06/05 01:34:08;;;;;;;4.30;2.50;;;;;;;10.88;100.00;99023.22;5159018;27;20468;-58
2023/06/05 01:36:36;;;;;;;7.82;2.72;;;;;;;10.80;100.00;99022.31;5158598;27;20134;-62
2023/06/05 01:39:05;;;;;;;8.60;2.58;;;;;;;10.71;100.00;99019.84;5159124;27;20046;-54
2023/06/05 01:41:32;;;;;;;9.75;3.00;;;;;;;10.59;100.00;99009.84;5158517;27;20467;-54
2023/06/05 01:43:59;;;;;;;6.65;2.35;;;;;;;10.55;100.00;98994.53;5159040;27;20147;-61
2023/06/05 01:46:25;;;;;;;8.25;2.47;;;;;;;10.49;100.00;98987.78;5158484;27;20050;-54
2023/06/05 01:48:52;;;;;;;2.67;1.85;;;;;;;10.47;100.00;98981.88;5158726;27;20050;-59
2023/06/05 01:51:18;;;;;;;9.18;2.95;;;;;;;10.35;100.00;98969.94;5158624;27;20101;-61
2023/06/05 01:53:48;;;;;;;5.35;2.45;;;;;;;10.37;100.00;98980.56;5157698;27;20054;-63
2023/06/05 01:56:19;;;;;;;9.75;2.97;;;;;;;10.29;100.00;98960.47;5158777;27;20043;-63
2023/06/05 01:58:46;;;;;;;11.05;2.83;;;;;;;10.24;100.00;98954.50;5158365;27;20431;-63
2023/06/05 02:01:15;;;;;;;5.22;2.58;;;;;;;10.21;100.00;98936.84;5158730;27;20346;-58
2023/06/05 02:03:47;;;;;;;4.78;2.78;;;;;;;10.19;100.00;98916.44;5158207;27;20047;-63
2023/06/05 02:06:14;;;;;;;4.55;2.38;;;;;;;10.07;100.00;98907.28;5158423;27;20047;-64
2023/06/05 02:08:40;;;;;;;8.75;3.03;;;;;;;10.02;100.00;98885.66;5158361;27;20057;-56
2023/06/05 02:11:10;;;;;;;17.52;3.67;;;;;;;9.99;100.00;98883.66;5158274;27;20059;-53
2023/06/05 02:13:37;;;;;;;7.90;2.85;;;;;;;10.01;100.00;98873.13;5158473;27;20051;-54
2023/06/05 02:16:04;;;;;;;4.88;2.55;;;;;;;9.93;100.00;98879.66;5158121;27;20074;-55
2023/06/05 02:18:30;;;;;;;9.43;2.40;;;;;;;9.87;100.00;98851.81;5158371;27;20054;-58
2023/06/05 02:20:56;;;;;;;4.93;2.40;;;;;;;9.93;100.00;98849.56;5158233;27;20065;-62
2023/06/05 02:23:22;;;;;;;3.92;2.72;;;;;;;10.01;100.00;98861.38;5158218;27;20064;-54
2023/06/05 02:25:48;;;;;;;3.65;2.15;;;;;;;10.21;100.00;98862.88;5158115;27;20043;-66
2023/06/05 02:28:15;;;;;;;6.93;2.70;;;;;;;10.44;100.00;98892.97;5158406;27;20049;-58
2023/06/05 02:30:45;;;;;;;10.07;2.67;;;;;;;10.77;100.00;98922.41;5157862;27;20071;-57
2023/06/05 02:33:12;;;;;;;6.45;2.45;;;;;;;11.14;100.00;98959.28;5158356;27;20311;-58
2023/06/05 02:35:40;;;;;;;5.13;2.85;;;;;;;11.23;100.00;99003.69;5157713;27;20083;-63
2023/06/05 02:38:06;;;;;;;9.15;2.60;;;;;;;11.63;100.00;99029.63;5158044;27;20114;-59
2023/06/05 02:40:32;;;;;;;7.78;2.83;;;;;;;11.78;100.00;99064.34;5158022;27;20047;-54
2023/06/05 02:42:58;;;;;;;6.70;2.83;;;;;;;12.11;100.00;99090.25;5158007;27;20054;-61
2023/06/05 02:45:24;;;;;;;5.03;2.40;;;;;;;12.13;100.00;99105.19;5158042;27;20078;-61
2023/06/05 02:47:50;;;;;;;11.02;3.03;;;;;;;12.31;100.00;99124.63;5157800;27;20061;-63
2023/06/05 02:50:16;;;;;;;4.82;2.60;;;;;;;12.66;100.00;99134.34;5157980;27;20392;-64
2023/06/05 02:52:42;;;;;;;7.53;2.83;;;;;;;12.81;100.00;99165.56;5157581;27;20167;-63
2023/06/05 02:55:09;;;;;;;4.90;2.80;;;;;;;12.99;100.00;99173.94;5158011;27;20047;-63
2023/06/05 02:57:41;;;;;;;5.90;2.78;;;;;;;13.16;100.00;99181.53;5157596;27;20336;-56
2023/06/05 03:00:08;;;;;;;10.98;2.80;;;;;;;13.48;100.00;99203.84;5158002;27;20043;-57
2023/06/05 03:02:36;;;;;;;9.45;3.10;;;;;;;13.56;100.00;99219.25;5157518;27;20066;-53
2023/06/05 03:05:02;;;;;;;7.53;2.67;;;;;;;13.71;100.00;99236.66;5157984;27;20050;-54
2023/06/05 03:07:30;;;;;;;7.45;2.75;;;;;;;13.98;100.00;99237.19;5161142;27;20138;-62
2023/06/05 03:09:55;;;;;;;8.25;3.03;;;;;;;14.03;100.00;99245.13;5161303;27;20150;-53
2023/06/05 03:12:21;;;;;;;7.50;3.03;;;;;;;14.24;100.00;99249.94;5161135;27;20316;-53
2023/06/05 03:14:47;;;;;;;9.02;2.80;;;;;;;14.50;100.00;99265.44;5161248;27;20137;-54
2023/06/05 03:17:13;;;;;;;10.52;2.90;;;;;;;14.66;100.00;99275.31;5161318;27;20133;-58
2023/06/05 03:19:40;;;;;;;14.25;3.17;;;;;;;14.86;100.00;99279.34;5161107;27;20439;-61
2023/06/05 03:22:06;;;;;;;6.25;2.80;;;;;;;14.89;100.00;99295.09;5161275;27;20066;-54
2023/06/05 03:24:32;;;;;;;7.88;3.50;;;;;;;15.33;100.00;99305.06;5160789;27;20436;-54
2023/06/05 03:26:58;;;;;;;7.28;3.25;;;;;;;15.49;100.00;99302.69;5161291;27;20416;-54
2023/06/05 03:29:24;;;;;;;7.05;3.03;;;;;;;15.78;100.00;99316.53;5160782;27;20153;-54
2023/06/05 03:31:50;;;;;;;9.60;2.80;;;;;;;16.10;100.00;99340.59;5161136;27;20054;-63
2023/06/05 03:34:16;;;;;;;8.43;3.03;;;;;;;16.30;100.00;99352.81;5160652;27;20363;-61
2023/06/05 03:36:42;;;;;;;7.93;2.95;;;;;;;16.59;100.00;99347.94;5160576;27;20047;-57
2023/06/05 03:39:08;;;;;;;6.20;2.53;;;;;;;16.82;100.00;99353.03;5160879;27;20143;-55
2023/06/05 03:41:35;;;;;;;10.73;2.72;;;;;;;17.00;100.00;99355.72;5160494;27;20456;-64
2023/06/05 03:44:01;;;;;;;3.00;2.60;;;;;;;17.10;100.00;99377.03;5160697;27;20061;-59
2023/06/05 03:46:29;;;;;;;14.82;3.13;;;;;;;17.59;100.00;99374.34;5160445;27;20047;-56
2023/06/05 03:48:58;;;;;;;8.60;4.30;;;;;;;17.73;100.00;99382.59;5161099;27;20053;-60
2023/06/05 03:51:29;;;;;;;8.82;3.00;;;;;;;18.17;100.00;99389.38;5160411;27;20331;-64
2023/06/05 03:53:56;;;;;;;6.05;2.90;;;;;;;18.41;97.72;99395.09;5160827;27;20089;-56
2023/06/05 03:56:23;;;;;;;4.93;2.60;;;;;;;18.71;95.98;99395.16;5160404;27;20142;-61
2023/06/05 03:58:49;;;;;;;7.93;2.28;;;;;;;18.77;95.04;99398.28;5160785;27;20054;-63
2023/06/05 04:01:15;;;;;;;4.78;2.35;;;;;;;18.86;91.98;99406.94;5160240;27;20073;-59
2023/06/05 04:03:41;;;;;;;5.30;2.17;;;;;;;19.13;90.50;99415.31;5160430;27;20392;-61
2023/06/05 04:06:08;;;;;;;10.23;2.00;;;;;;;19.43;88.69;99419.28;5160293;27;20082;-64
2023/06/05 04:08:34;;;;;;;2.83;1.98;;;;;;;19.86;87.57;99421.44;5160103;27;20141;-59
2023/06/05 04:11:00;;;;;;;4.55;2.22;;;;;;;20.16;84.35;99423.38;5160353;27;20051;-62
2023/06/05 04:13:26;;;;;;;3.47;2.00;;;;;;;20.40;81.75;99424.91;5159938;27;20051;-63
2023/06/05 04:15:53;;;;;;;2.90;1.80;;;;;;;20.62;79.23;99430.88;5160369;27;20051;-59
2023/06/05 04:18:19;;;;;;;5.93;2.33;;;;;;;20.74;79.73;99431.50;5159557;27;20051;-65
2023/06/05 04:20:45;;;;;;;3.67;1.83;;;;;;;20.87;75.98;99432.44;5160227;27;20054;-56
2023/06/05 04:23:10;;;;;;;2.75;1.73;;;;;;;21.57;71.90;99440.53;5159881;27;20078;-57
2023/06/05 04:25:36;;;;;;;2.92;1.50;;;;;;;21.32;70.95;99443.81;5160275;27;20141;-54
2023/06/05 04:28:03;;;;;;;4.85;1.30;;;;;;;21.67;68.53;99440.72;5159843;27;20404;-55
2023/06/05 04:30:29;;;;;;;3.63;1.38;;;;;;;21.83;66.48;99443.53;5159831;27;20047;-63
2023/06/05 04:32:56;;;;;;;5.93;2.15;;;;;;;22.39;64.67;99446.19;5160263;27;20046;-64
2023/06/05 04:35:22;;;;;;;3.53;1.48;;;;;;;22.48;63.62;99443.53;5159849;27;20054;-61
2023/06/05 04:37:48;;;;;;;5.20;1.58;;;;;;;22.94;63.80;99437.94;5159870;27;20095;-59
2023/06/05 04:40:16;;;;;;;2.35;1.73;;;;;;;22.64;62.63;99444.72;5159723;27;20087;-60
2023/06/05 04:42:42;;;;;;;3.22;1.83;;;;;;;23.07;62.48;99444.34;5159843;27;20057;-62
2023/06/05 04:45:08;;;;;;;8.13;1.60;;;;;;;23.27;62.00;99446.97;5159530;27;20099;-64
2023/06/05 04:47:35;;;;;;;3.45;1.60;;;;;;;23.36;60.96;99447.09;5159706;27;20070;-63
2023/06/05 04:50:03;;;;;;;4.00;2.00;;;;;;;23.64;59.78;99445.44;5159361;27;20056;-63
2023/06/05 04:52:30;;;;;;;2.10;1.75;;;;;;;23.75;59.61;99447.94;5159592;27;20050;-63
2023/06/05 04:54:57;;;;;;;6.07;1.70;;;;;;;23.85;60.85;99448.84;5159302;27;20047;-57
2023/06/05 04:57:24;;;;;;;3.63;2.03;;;;;;;24.17;59.58;99447.81;5159692;27;20106;-57
2023/06/05 04:59:50;;;;;;;5.53;2.30;;;;;;;24.17;59.04;99450.59;5159063;27;20050;-62
2023/06/05 05:02:16;;;;;;;3.05;1.80;;;;;;;24.30;60.00;99451.34;5159092;27;20118;-64
2023/06/05 05:04:42;;;;;;;5.88;2.15;;;;;;;24.62;58.96;99453.09;5159113;27;20054;-64
2023/06/05 05:07:14;;;;;;;5.47;2.33;;;;;;;24.49;58.83;99452.34;5159311;27;20046;-61
2023/06/05 05:09:41;;;;;;;6.88;2.17;;;;;;;24.76;57.44;99451.00;5159256;27;20078;-63
2023/06/05 05:12:07;;;;;;;3.13;2.10;;;;;;;25.00;56.74;99448.56;5158986;27;20051;-60
2023/06/05 05:14:33;;;;;;;5.20;1.80;;;;;;;25.18;56.85;99453.53;5159104;27;20046;-66
2023/06/05 05:17:01;;;;;;;6.97;1.80;;;;;;;25.52;55.53;99453.41;5158950;27;20047;-61
2023/06/05 05:19:27;;;;;;;10.10;1.80;;;;;;;25.57;54.82;99452.03;5159223;27;20058;-63
2023/06/05 05:21:53;;;;;;;3.15;1.83;;;;;;;25.59;55.24;99453.16;5158952;27;20057;-65
2023/06/05 05:24:20;;;;;;;5.57;2.28;;;;;;;25.88;54.47;99454.06;5159192;27;20047;-64
2023/06/05 05:26:46;;;;;;;4.00;1.80;;;;;;;25.65;54.67;99452.53;5158850;27;20138;-62
2023/06/05 05:29:12;;;;;;;5.10;1.80;;;;;;;25.63;55.08;99450.22;5157413;27;20050;-64
2023/06/05 05:31:38;;;;;;;11.35;2.03;;;;;;;25.77;54.12;99454.47;5158570;27;20458;-57
2023/06/05 05:34:05;;;;;;;8.43;1.92;;;;;;;26.00;53.84;99451.16;5158793;27;20081;-57
2023/06/05 05:36:33;;;;;;;3.17;2.00;;;;;;;25.93;54.32;99451.44;5158778;27;20193;-57
2023/06/05 05:38:59;;;;;;;3.15;1.73;;;;;;;25.93;53.79;99447.84;5158498;27;20050;-60
2023/06/05 05:41:26;;;;;;;6.47;2.35;;;;;;;27.05;52.83;99448.28;5158638;27;20050;-59
2023/06/05 05:43:52;;;;;;;3.67;1.80;;;;;;;26.55;52.45;99450.50;5158453;27;20082;-59
2023/06/05 05:46:18;;;;;;;5.97;1.80;;;;;;;26.50;52.29;99457.53;5158807;27;20189;-55
2023/06/05 05:48:44;;;;;;;3.92;1.80;;;;;;;26.95;52.27;99446.72;5158387;27;20337;-56
2023/06/05 05:51:10;;;;;;;3.35;2.03;;;;;;;26.93;52.68;99450.03;5158737;27;20051;-63
2023/06/05 05:53:36;;;;;;;2.90;1.55;;;;;;;27.16;50.63;99462.69;5158455;27;20137;-67
2023/06/05 05:56:02;;;;;;;5.55;1.33;;;;;;;26.94;50.79;99453.63;5158925;27;20051;-69
2023/06/05 05:58:29;;;;;;;5.60;1.52;;;;;;;26.85;50.82;99467.69;5158612;27;20053;-69
2023/06/05 06:00:55;;;;;;;1.70;1.40;;;;;;;27.26;50.37;99457.03;5158905;27;20056;-60
2023/06/05 06:03:22;;;;;;;3.45;1.50;;;;;;;27.29;50.50;99462.53;5158487;27;20043;-58
2023/06/05 06:05:48;;;;;;;4.25;1.40;;;;;;;27.04;50.54;99466.44;5158404;27;20357;-55
2023/06/05 06:08:14;;;;;;;1.63;1.30;;;;;;;27.08;50.27;99460.63;5158564;27;20119;-55
2023/06/05 06:10:40;;;;;;;5.07;1.50;;;;;;;27.25;49.93;99466.75;5158398;27;20327;-58
2023/06/05 06:13:07;;;;;;;3.25;1.33;;;;;;;27.34;50.32;99467.50;5158571;27;20149;-67
2023/06/05 06:15:33;;;;;;;2.80;1.70;;;;;;;27.86;49.60;99471.13;5157887;27;20433;-55
2023/06/05 06:18:02;;;;;;;9.02;1.67;;;;;;;27.38;49.96;99465.28;5158651;27;20047;-57
2023/06/05 06:20:28;;;;;;;3.33;1.88;;;;;;;28.10;49.17;99471.16;5158372;27;20086;-59
2023/06/05 06:22:54;;;;;;;5.65;1.30;;;;;;;27.61;49.23;99461.00;5159778;27;20063;-62
2023/06/05 06:25:21;;;;;;;3.17;1.33;;;;;;;26.92;49.09;99456.13;5157641;27;20165;-62
2023/06/05 06:27:48;;;;;;;3.83;1.30;;;;;;;28.26;47.98;99464.34;5158266;27;20211;-60
2023/06/05 06:30:14;;;;;;;2.58;1.55;;;;;;;28.46;47.92;99463.78;5157916;27;20062;-67
2023/06/05 06:32:41;;;;;;;6.95;1.35;;;;;;;28.59;46.87;99458.66;5157764;27;20365;-69
2023/06/05 06:35:07;;;;;;;4.10;1.40;;;;;;;28.67;46.79;99461.13;5158268;27;20133;-64
2023/06/05 06:37:34;;;;;;;4.90;2.58;;;;;;;28.21;47.50;99467.81;5157860;27;20134;-61
2023/06/05 06:39:59;;;;;;;5.45;1.80;;;;;;;28.43;46.95;99464.72;5159142;27;20051;-69
2023/06/05 06:42:27;;;;;;;3.70;1.70;;;;;;;28.73;46.51;99459.19;5161571;27;20088;-63
2023/06/05 06:44:55;;;;;;;1.50;1.40;;;;;;;28.68;46.82;99465.47;5161815;27;20050;-59
2023/06/05 06:47:21;;;;;;;5.05;1.25;;;;;;;28.21;46.23;99455.75;5161596;27;20050;-62
2023/06/05 06:49:48;;;;;;;3.25;1.60;;;;;;;27.77;46.85;99462.72;5162056;27;20051;-58
2023/06/05 06:52:14;;;;;;;2.90;1.50;;;;;;;27.72;47.21;99462.53;5161281;27;20498;-60
2023/06/05 06:54:40;;;;;;;3.88;1.90;;;;;;;27.76;47.64;99452.72;5161750;27;20107;-57
2023/06/05 06:57:06;;;;;;;7.03;1.67;;;;;;;28.11;47.09;99452.22;5161761;27;20058;-58
2023/06/05 06:59:32;;;;;;;4.47;1.33;;;;;;;28.82;46.40;99459.09;5161519;27;20118;-64
2023/06/05 07:02:13;;;;;;;5.22;1.42;;;;;;;27.93;47.03;99453.09;5161484;27;20051;-56
2023/06/05 07:04:41;;;;;;;1.75;1.40;;;;;;;27.85;46.56;99457.50;5161032;27;20093;-57
2023/06/05 07:07:09;;;;;;;4.97;1.88;;;;;;;27.65;47.04;99458.03;5161338;27;20390;-59
2023/06/05 07:09:35;;;;;;;2.90;1.60;;;;;;;28.23;46.70;99456.06;5161433;27;20046;-67
2023/06/05 07:12:05;;;;;;;6.07;1.38;;;;;;;28.74;46.87;99457.91;5161249;27;20054;-55
2023/06/05 07:14:31;;;;;;;6.97;2.10;;;;;;;28.86;46.64;99459.72;5160903;27;20047;-62
2023/06/05 07:16:59;;;;;;;3.47;1.48;;;;;;;29.24;45.99;99458.13;5161031;27;20065;-55
2023/06/05 07:19:26;;;;;;;1.50;1.40;;;;;;;28.59;45.44;99457.88;5161090;27;20088;-68
2023/06/05 07:21:51;;;;;;;10.50;2.05;;;;;;;28.64;46.28;99451.56;5160954;27;20050;-55
2023/06/05 07:24:18;;;;;;;1.38;1.20;;;;;;;28.94;45.52;99455.22;5160865;27;20142;-56
2023/06/05 07:26:44;;;;;;;4.05;1.52;;;;;;;28.74;45.09;99453.06;5161028;27;20099;-56
2023/06/05 07:29:10;;;;;;;4.25;1.23;;;;;;;29.26;45.29;99456.38;5161009;27;20488;-67
2023/06/05 07:31:36;;;;;;;2.83;1.20;;;;;;;29.33;45.41;99463.66;5161041;27;20058;-65
2023/06/05 07:34:02;;;;;;;2.80;1.80;;;;;;;29.22;45.50;99457.81;5161123;27;20046;-62
2023/06/05 07:36:29;;;;;;;2.67;1.23;;;;;;;28.92;44.95;99454.94;5160622;27;20420;-58
2023/06/05 07:38:56;;;;;;;5.18;1.50;;;;;;;28.50;45.72;99449.50;5161229;27;20053;-61
2023/06/05 07:41:22;;;;;;;3.60;1.23;;;;;;;28.03;45.64;99448.19;5161111;27;20063;-62
2023/06/05 07:43:48;;;;;;;4.30;1.48;;;;;;;28.73;46.24;99450.72;5161002;27;20142;-65
2023/06/05 07:46:16;;;;;;;2.88;1.50;;;;;;;29.03;45.23;99454.41;5160348;27;20042;-65
2023/06/05 07:48:42;;;;;;;3.75;1.40;;;;;;;29.36;44.76;99454.22;5160679;27;20051;-66
2023/06/05 07:51:08;;;;;;;4.20;1.52;;;;;;;30.21;44.44;99462.00;5159730;27;20068;-64
2023/06/05 07:53:35;;;;;;;4.93;1.65;;;;;;;29.73;45.01;99456.66;5160373;27;20055;-60
2023/06/05 07:56:01;;;;;;;3.30;1.40;;;;;;;30.01;44.39;99457.06;5160299;27;20062;-61
2023/06/05 07:58:29;;;;;;;7.00;1.55;;;;;;;30.65;44.17;99458.97;5160200;27;20043;-55
2023/06/05 08:00:56;;;;;;;2.40;1.40;;;;;;;30.67;43.80;99459.25;5160667;27;20047;-61
2023/06/05 08:03:23;;;;;;;3.85;1.77;;;;;;;30.58;43.90;99455.78;5160490;27;20046;-62
2023/06/05 08:05:49;;;;;;;5.15;1.65;;;;;;;29.96;43.35;99460.59;5162097;27;20058;-58
2023/06/05 08:08:15;;;;;;;3.00;1.73;;;;;;;29.33;42.64;99455.19;5162141;27;20339;-58
2023/06/05 08:10:41;;;;;;;4.20;1.30;;;;;;;29.72;43.28;99458.72;5161886;27;20137;-63
2023/06/05 08:13:07;;;;;;;1.42;1.27;;;;;;;29.50;42.94;99461.13;5160705;27;20133;-68
2023/06/05 08:15:34;;;;;;;2.28;1.50;;;;;;;29.36;43.40;99459.88;5160275;27;20328;-60
2023/06/05 08:18:00;;;;;;;5.72;1.60;;;;;;;29.27;43.71;99455.09;5159708;27;20053;-59
2023/06/05 08:20:26;;;;;;;3.33;1.35;;;;;;;29.01;42.84;99454.88;5160270;27;20138;-57
2023/06/05 08:22:53;;;;;;;4.05;1.77;;;;;;;29.28;42.35;99444.56;5161052;27;20051;-59
2023/06/05 08:25:19;;;;;;;2.20;1.40;;;;;;;29.36;42.07;99453.44;5160655;27;20065;-63
2023/06/05 08:27:45;;;;;;;3.78;1.42;;;;;;;29.30;42.33;99459.78;5160729;27;20089;-61
2023/06/05 08:30:11;;;;;;;3.22;1.52;;;;;;;29.28;42.29;99465.13;5159866;27;20078;-58
2023/06/05 08:32:38;;;;;;;3.60;1.50;;;;;;;29.83;42.29;99462.97;5159906;27;20050;-61
2023/06/05 08:35:05;;;;;;;2.70;1.50;;;;;;;29.98;42.14;99469.34;5159940;27;20402;-66
2023/06/05 08:37:31;;;;;;;1.60;1.30;;;;;;;30.34;41.52;99464.50;5160313;27;20047;-59
2023/06/05 08:39:59;;;;;;;2.65;1.63;;;;;;;29.26;42.23;99461.25;5159579;27;20135;-61
2023/06/05 08:42:28;;;;;;;3.20;1.88;;;;;;;30.23;41.79;99465.91;5160023;27;20138;-66
2023/06/05 08:44:54;;;;;;;2.08;1.40;;;;;;;29.74;42.00;99461.03;5159490;27;20432;-58
2023/06/05 08:47:23;;;;;;;5.07;1.73;;;;;;;29.72;41.41;99469.22;5159578;27;20061;-61
2023/06/05 08:49:54;;;;;;;4.07;1.52;;;;;;;29.90;41.61;99476.69;5159961;27;20053;-64
2023/06/05 08:52:22;;;;;;;5.50;1.50;;;;;;;29.30;41.95;99467.47;5159700;27;20112;-63
2023/06/05 08:54:49;;;;;;;6.90;1.77;;;;;;;29.92;41.69;99468.50;5159699;27;20301;-64
2023/06/05 08:57:15;;;;;;;4.03;1.45;;;;;;;29.90;41.92;99466.16;5160265;27;20141;-68
2023/06/05 08:59:43;;;;;;;2.67;1.27;;;;;;;29.81;42.11;99459.84;5160566;27;20081;-63
2023/06/05 09:02:10;;;;;;;5.35;2.10;;;;;;;30.29;41.74;99462.34;5159393;27;20051;-63
2023/06/05 09:04:36;;;;;;;2.70;1.35;;;;;;;30.24;41.53;99464.63;5160031;27;20141;-60
2023/06/05 09:07:04;;;;;;;3.33;1.60;;;;;;;30.15;41.11;99463.94;5160047;27;20050;-67
2023/06/05 09:09:32;;;;;;;3.45;1.70;;;;;;;30.41;41.47;99461.25;5160303;27;20047;-67
2023/06/05 09:12:05;;;;;;;5.00;1.50;;;;;;;30.14;41.66;99454.69;5159390;27;20118;-65
2023/06/05 09:14:32;;;;;;;3.13;1.60;;;;;;;30.29;41.23;99459.53;5159164;27;20050;-66
2023/06/05 09:17:00;;;;;;;1.75;1.20;;;;;;;30.30;41.50;99453.41;5159324;27;20142;-64
2023/06/05 09:19:36;;;;;;;3.38;1.65;;;;;;;29.88;41.29;99454.56;5159308;27;20050;-65
2023/06/05 09:22:02;;;;;;;4.65;1.50;;;;;;;29.49;40.51;99454.72;5159562;27;20134;-56
2023/06/05 09:24:30;;;;;;;3.55;1.45;;;;;;;30.05;41.44;99451.97;5159513;27;20051;-61
2023/06/05 09:26:57;;;;;;;3.78;2.17;;;;;;;29.84;40.47;99448.34;5159425;27;20059;-63
2023/06/05 09:29:25;;;;;;;4.15;1.92;;;;;;;29.64;41.39;99451.13;5159162;27;20061;-60
2023/06/05 09:31:53;;;;;;;5.38;1.40;;;;;;;29.53;41.52;99443.22;5160544;27;20047;-66
2023/06/05 09:34:23;;;;;;;4.65;1.83;;;;;;;29.29;41.36;99454.59;5159088;27;20046;-61
2023/06/05 09:36:50;;;;;;;4.25;1.65;;;;;;;29.19;41.94;99444.66;5158912;27;20053;-66
2023/06/05 09:39:16;;;;;;;1.20;1.10;;;;;;;29.47;41.69;99448.75;5158822;27;20593;-55
2023/06/05 09:41:44;;;;;;;3.47;1.40;;;;;;;29.70;41.56;99440.69;5158731;27;20047;-62
2023/06/05 09:44:10;;;;;;;2.92;2.05;;;;;;;29.41;42.69;99438.63;5158639;27;20047;-64
2023/06/05 09:46:50;;;;;;;4.78;1.77;;;;;;;29.57;42.35;99440.19;5158380;27;20400;-56
2023/06/05 09:49:16;;;;;;;2.92;1.65;;;;;;;29.40;42.01;99442.75;5159243;27;20057;-57
2023/06/05 09:51:43;;;;;;;4.40;1.30;;;;;;;28.59;41.88;99426.84;5158007;27;20047;-56
2023/06/05 09:54:11;;;;;;;3.10;1.30;;;;;;;27.95;43.28;99424.44;5158929;27;20047;-63
2023/06/05 09:56:39;;;;;;;2.70;1.55;;;;;;;28.02;43.73;99436.13;5158644;27;20050;-56
2023/06/05 09:59:07;;;;;;;3.70;1.35;;;;;;;28.24;42.47;99433.03;5158882;27;20102;-54
2023/06/05 10:01:36;;;;;;;2.55;1.10;;;;;;;29.03;41.55;99435.44;5159906;27;20050;-60
2023/06/05 10:04:05;;;;;;;1.85;1.15;;;;;;;28.36;41.97;99437.66;5160613;27;20164;-58
2023/06/05 10:06:33;;;;;;;2.83;1.30;;;;;;;28.01;41.62;99422.53;5161418;27;20348;-61
2023/06/05 10:09:00;;;;;;;6.15;1.55;;;;;;;27.82;42.42;99433.09;5160255;27;20150;-62
2023/06/05 10:11:27;;;;;;;3.00;1.60;;;;;;;28.40;42.47;99431.09;5159287;27;20061;-55
2023/06/05 10:13:53;;;;;;;4.38;1.50;;;;;;;28.28;43.21;99411.06;5158431;27;20472;-61
2023/06/05 10:16:20;;;;;;;1.75;1.33;;;;;;;28.82;42.82;99416.78;5158435;27;20138;-61
2023/06/05 10:18:47;;;;;;;3.25;1.20;;;;;;;28.81;42.96;99430.09;5158769;27;20339;-61
2023/06/05 10:21:14;;;;;;;5.45;1.27;;;;;;;29.06;42.22;99425.22;5158860;27;20050;-66
2023/06/05 10:23:42;;;;;;;5.22;1.50;;;;;;;28.81;42.36;99420.88;5158004;27;20133;-66
2023/06/05 10:26:33;;;;;;;5.85;2.70;;;;;;;28.97;42.51;99411.16;5158301;27;20517;-62
2023/06/05 10:29:11;;;;;;;3.17;1.60;;;;;;;28.76;42.67;99413.09;5157757;27;20420;-65
2023/06/05 10:31:46;;;;;;;5.18;1.60;;;;;;;29.17;42.22;99410.50;5158088;27;20430;-57
2023/06/05 10:34:23;;;;;;;5.35;1.35;;;;;;;29.42;43.00;99401.41;5158364;27;20453;-63
2023/06/05 10:37:26;;;;;;;2.38;1.20;;;;;;;29.38;42.35;99400.84;5158513;27;20168;-69
2023/06/05 10:39:54;;;;;;;8.50;1.63;;;;;;;28.98;43.46;99405.00;5158758;27;20060;-60
2023/06/05 10:42:24;;;;;;;9.55;1.77;;;;;;;28.64;44.19;99411.31;5158061;27;20181;-57
2023/06/05 10:44:50;;;;;;;5.18;1.70;;;;;;;28.68;44.52;99406.25;5157795;27;20148;-59
2023/06/05 10:47:51;;;;;;;4.38;1.50;;;;;;;28.49;43.98;99402.78;5158100;27;20101;-66
2023/06/05 10:50:30;;;;;;;5.57;1.50;;;;;;;27.82;44.67;99404.94;5157645;27;20042;-58
2023/06/05 10:52:57;;;;;;;5.20;1.30;;;;;;;27.90;45.76;99409.75;5157659;27;20058;-63
2023/06/05 10:55:25;;;;;;;6.50;2.95;;;;;;;26.66;46.45;99405.84;5157170;27;20050;-59
2023/06/05 10:58:06;;;;;;;3.78;1.25;;;;;;;26.60;46.26;99407.72;5157180;27;20342;-56
2023/06/05 11:00:33;;;;;;;2.38;1.55;;;;;;;25.34;47.50;99394.41;5157645;27;20043;-62
2023/06/05 11:03:00;;;;;;;4.78;1.48;;;;;;;24.59;48.69;99392.34;5157469;27;20054;-66
2023/06/05 11:05:27;;;;;;;5.97;2.00;;;;;;;24.39;49.65;99403.00;5157092;27;20189;-59
2023/06/05 11:08:11;;;;;;;4.20;2.28;;;;;;;24.22;51.08;99394.00;5157431;27;20142;-58
2023/06/05 11:10:36;;;;;;;;;;;;;;;24.81;49.77;99389.53;5158670;27;20065;-65
2023/06/05 11:13:03;;;;;;;3.58;1.70;;;;;;;24.58;49.69;99404.00;5157274;27;19923;-65
2023/06/05 11:15:37;;;;;;;5.55;1.08;;;;;;;24.91;48.88;99392.41;5157653;27;20211;-63
2023/06/05 11:18:34;;;;;;;1.75;1.15;;;;;;;24.81;48.50;99386.72;5157386;27;20133;-66
2023/06/05 11:21:01;;;;;;;6.93;1.50;;;;;;;24.78;48.52;99390.44;5157341;27;20133;-61
2023/06/05 11:23:28;;;;;;;1.38;1.00;;;;;;;24.54;47.08;99380.94;5157294;27;20093;-63
2023/06/05 11:25:57;;;;;;;3.47;1.38;;;;;;;24.68;47.48;99380.41;5156912;27;20047;-59
2023/06/05 11:28:40;;;;;;;2.45;1.33;;;;;;;24.57;48.11;99389.19;5160961;27;20078;-59
2023/06/05 11:31:06;;;;;;;6.20;1.88;;;;;;;24.32;48.92;99392.06;5160656;27;20352;-56